createdAt,value
2022-12-06T00:01:43.774Z,6.30
2022-12-06T00:04:15.668Z,6.43
2022-12-06T00:06:50.849Z,6.80
2022-12-06T00:09:24.968Z,6.75
2022-12-06T00:11:54.143Z,7.00
2022-12-06T00:14:27.171Z,6.60
2022-12-06T00:16:56.736Z,6.28
2022-12-06T00:19:26.252Z,6.18
2022-12-06T00:21:55.599Z,6.85
2022-12-06T00:24:26.308Z,7.00
2022-12-06T00:26:55.097Z,6.65
2022-12-06T00:29:25.584Z,7.00
2022-12-06T00:31:54.461Z,6.95
2022-12-06T00:34:23.271Z,6.15
2022-12-06T00:36:52.088Z,6.93
2022-12-06T00:39:20.964Z,6.55
2022-12-06T00:41:51.641Z,6.85
2022-12-06T00:44:20.740Z,6.07
2022-12-06T00:46:49.501Z,6.38
2022-12-06T00:49:18.424Z,6.10
2022-12-06T00:51:47.232Z,5.78
2022-12-06T00:54:16.982Z,6.30
2022-12-06T00:56:45.874Z,5.47
2022-12-06T00:59:16.864Z,5.90
2022-12-06T01:01:45.717Z,6.07
2022-12-06T01:04:14.544Z,5.78
2022-12-06T01:06:43.475Z,7.05
2022-12-06T01:09:13.596Z,5.40
2022-12-06T01:11:42.587Z,5.40
2022-12-06T01:14:11.413Z,5.30
2022-12-06T01:16:43.146Z,5.95
2022-12-06T01:19:14.392Z,5.88
2022-12-06T01:21:42.983Z,5.38
2022-12-06T01:24:11.644Z,5.53
2022-12-06T01:26:40.325Z,5.53
2022-12-06T01:29:09.048Z,5.55
2022-12-06T01:31:39.256Z,5.10
2022-12-06T01:34:17.731Z,5.60
2022-12-06T01:36:46.611Z,5.47
2022-12-06T01:39:15.244Z,6.03
2022-12-06T01:41:44.153Z,5.22
2022-12-06T01:44:42.280Z,4.70
2022-12-06T01:47:18.793Z,5.22
2022-12-06T01:49:57.490Z,4.80
2022-12-06T01:52:31.833Z,5.22
2022-12-06T01:55:02.179Z,6.03
2022-12-06T01:57:32.078Z,4.68
2022-12-06T02:00:01.260Z,5.07
2022-12-06T02:02:30.165Z,4.78
2022-12-06T02:05:01.400Z,5.18
2022-12-06T02:07:30.966Z,5.18
2022-12-06T02:10:00.048Z,4.35
2022-12-06T02:12:28.847Z,4.63
2022-12-06T02:14:59.012Z,4.47
2022-12-06T02:17:45.124Z,4.90
2022-12-06T02:20:23.978Z,4.63
2022-12-06T02:23:29.127Z,4.38
2022-12-06T02:26:25.549Z,4.63
2022-12-06T02:29:39.511Z,4.35
2022-12-06T02:32:15.456Z,4.63
2022-12-06T02:34:49.767Z,4.45
2022-12-06T02:37:26.914Z,4.43
2022-12-06T02:40:02.907Z,4.38
2022-12-06T02:42:38.232Z,4.20
2022-12-06T02:45:14.627Z,4.35
2022-12-06T02:47:47.849Z,4.70
2022-12-06T02:50:20.668Z,4.25
2022-12-06T02:52:55.350Z,4.35
2022-12-06T02:55:26.387Z,4.13
2022-12-06T02:57:56.793Z,3.70
2022-12-06T03:00:38.780Z,4.18
2022-12-06T03:03:41.548Z,3.92
2022-12-06T03:06:42.743Z,3.80
2022-12-06T03:09:26.850Z,3.45
2022-12-06T03:12:08.147Z,3.67
2022-12-06T03:14:46.840Z,3.60
2022-12-06T03:17:24.852Z,3.80
2022-12-06T03:20:00.967Z,3.92
2022-12-06T03:22:38.223Z,3.25
2022-12-06T03:25:11.749Z,3.67
2022-12-06T03:27:43.256Z,3.25
2022-12-06T03:30:16.268Z,3.45
2022-12-06T03:32:50.588Z,3.60
2022-12-06T03:35:27.340Z,3.30
2022-12-06T03:38:03.288Z,3.33
2022-12-06T03:40:36.613Z,3.70
2022-12-06T03:43:06.675Z,3.70
2022-12-06T03:45:42.648Z,3.22
2022-12-06T03:48:16.609Z,3.30
2022-12-06T03:50:58.304Z,3.90
2022-12-06T03:53:27.627Z,3.30
2022-12-06T03:55:56.294Z,3.50
2022-12-06T03:58:25.047Z,3.50
2022-12-06T04:00:53.708Z,3.22
2022-12-06T04:03:22.529Z,3.92
2022-12-06T04:05:53.108Z,3.45
2022-12-06T04:08:21.773Z,3.58
2022-12-06T04:10:50.431Z,3.70
2022-12-06T04:13:19.897Z,3.70
2022-12-06T04:15:49.304Z,4.10
2022-12-06T04:18:17.946Z,3.50
2022-12-06T04:21:02.958Z,3.75
2022-12-06T04:23:36.446Z,3.83
2022-12-06T04:26:07.307Z,4.00
2022-12-06T04:28:49.193Z,3.65
2022-12-06T04:31:31.247Z,3.55
2022-12-06T04:36:55.113Z,2.38
2022-12-06T04:39:26.079Z,3.15
2022-12-06T04:42:08.709Z,3.77
2022-12-06T04:44:37.610Z,3.58
2022-12-06T04:47:07.327Z,3.50
2022-12-06T04:49:37.502Z,3.70
2022-12-06T04:52:08.187Z,3.92
2022-12-06T04:54:40.008Z,3.75
2022-12-06T04:57:10.350Z,3.40
2022-12-06T04:59:40.583Z,3.40
2022-12-06T05:02:12.971Z,3.33
2022-12-06T05:04:41.671Z,2.97
2022-12-06T05:07:11.086Z,3.72
2022-12-06T05:09:41.667Z,3.13
2022-12-06T05:12:10.763Z,3.63
2022-12-06T05:14:39.395Z,3.38
2022-12-06T05:17:08.155Z,3.20
2022-12-06T05:19:36.716Z,3.70
2022-12-06T05:22:05.335Z,3.38
2022-12-06T05:24:34.204Z,3.53
2022-12-06T05:27:04.742Z,3.58
2022-12-06T05:29:33.596Z,3.28
2022-12-06T05:32:02.344Z,3.25
2022-12-06T05:34:31.053Z,3.25
2022-12-06T05:36:59.725Z,3.08
2022-12-06T05:39:28.769Z,3.80
2022-12-06T05:41:57.523Z,3.67
2022-12-06T05:44:28.359Z,3.40
2022-12-06T05:46:57.115Z,3.35
2022-12-06T05:49:25.672Z,3.60
2022-12-06T05:51:54.706Z,3.70
2022-12-06T05:54:23.515Z,3.42
2022-12-06T05:56:52.384Z,3.33
2022-12-06T05:59:20.962Z,3.72
2022-12-06T06:01:52.059Z,3.47
2022-12-06T06:04:20.742Z,3.55
2022-12-06T06:06:49.401Z,3.70
2022-12-06T06:09:18.316Z,4.05
2022-12-06T06:11:46.954Z,3.78
2022-12-06T06:14:16.292Z,3.63
2022-12-06T06:16:44.981Z,4.22
2022-12-06T06:19:15.628Z,3.70
2022-12-06T06:21:44.291Z,3.38
2022-12-06T06:24:12.975Z,3.83
2022-12-06T06:26:41.675Z,3.88
2022-12-06T06:29:10.323Z,4.38
2022-12-06T06:31:39.035Z,4.70
2022-12-06T06:34:07.766Z,4.53
2022-12-06T06:36:42.519Z,4.88
2022-12-06T06:39:14.251Z,4.90
2022-12-06T06:41:43.044Z,4.40
2022-12-06T06:44:11.657Z,4.55
2022-12-06T06:46:40.695Z,4.60
2022-12-06T06:49:09.357Z,4.93
2022-12-06T06:51:39.891Z,4.35
2022-12-06T06:54:08.470Z,4.75
2022-12-06T06:56:37.047Z,4.82
2022-12-06T06:59:06.191Z,5.60
2022-12-06T07:01:35.332Z,6.07
2022-12-06T07:04:04.226Z,5.85
2022-12-06T07:06:32.888Z,6.07
2022-12-06T07:09:03.516Z,6.55
2022-12-06T07:11:32.191Z,6.10
2022-12-06T07:14:02.040Z,6.13
2022-12-06T07:16:30.792Z,6.68
2022-12-06T07:18:59.488Z,6.95
2022-12-06T07:21:28.294Z,7.22
2022-12-06T07:23:56.998Z,7.15
2022-12-06T07:26:28.298Z,7.38
2022-12-06T07:28:58.008Z,6.82
2022-12-06T07:31:29.339Z,7.32
2022-12-06T07:34:00.411Z,6.57
2022-12-06T07:36:32.605Z,6.30
2022-12-06T07:39:02.078Z,6.70
2022-12-06T07:41:45.964Z,6.85
2022-12-06T07:44:29.787Z,6.03
2022-12-06T07:46:59.617Z,6.70
2022-12-06T07:49:29.246Z,6.10
2022-12-06T07:51:59.417Z,6.75
2022-12-06T07:54:28.623Z,7.15
2022-12-06T07:56:59.238Z,6.57
2022-12-06T07:59:28.290Z,6.90
2022-12-06T08:01:57.084Z,6.50
2022-12-06T08:04:25.851Z,6.55
2022-12-06T08:06:55.601Z,6.70
2022-12-06T08:09:24.357Z,6.07
2022-12-06T08:11:53.141Z,6.68
2022-12-06T08:14:24.022Z,6.95
2022-12-06T08:16:53.144Z,6.53
2022-12-06T08:19:22.162Z,6.88
2022-12-06T08:21:51.012Z,7.03
2022-12-06T08:24:19.905Z,6.78
2022-12-06T08:26:49.095Z,7.05
2022-12-06T08:29:18.014Z,7.57
2022-12-06T08:31:48.693Z,7.13
2022-12-06T08:34:18.055Z,6.80
2022-12-06T08:36:46.836Z,6.20
2022-12-06T08:39:15.609Z,6.10
2022-12-06T08:41:57.377Z,4.82
2022-12-06T08:44:28.460Z,5.15
2022-12-06T08:47:01.319Z,4.50
2022-12-06T08:49:31.440Z,4.53
2022-12-06T08:52:01.244Z,4.05
2022-12-06T08:54:30.480Z,4.05
2022-12-06T08:56:59.224Z,3.55
2022-12-06T08:59:28.144Z,3.80
2022-12-06T09:01:58.954Z,3.72
2022-12-06T09:04:28.497Z,4.07
2022-12-06T09:06:57.281Z,3.55
2022-12-06T09:09:26.121Z,4.03
2022-12-06T09:11:54.995Z,3.45
2022-12-06T09:14:24.085Z,3.70
2022-12-06T09:16:53.518Z,3.58
2022-12-06T09:19:24.281Z,3.78
2022-12-06T09:21:53.043Z,3.60
2022-12-06T09:24:22.130Z,3.42
2022-12-06T09:26:51.303Z,3.03
2022-12-06T09:29:20.364Z,3.22
2022-12-06T09:31:49.112Z,3.33
2022-12-06T09:34:17.983Z,3.67
2022-12-06T09:36:55.476Z,3.17
2022-12-06T09:39:31.780Z,3.40
2022-12-06T09:42:43.824Z,3.17
2022-12-06T09:45:32.059Z,3.28
2022-12-06T09:48:48.741Z,3.30
2022-12-06T09:51:33.101Z,3.10
2022-12-06T09:54:22.692Z,3.25
2022-12-06T09:56:58.992Z,2.60
2022-12-06T09:59:42.933Z,3.30
2022-12-06T10:02:49.461Z,2.90
2022-12-06T10:05:39.908Z,2.75
2022-12-06T10:08:24.655Z,2.50
2022-12-06T10:11:09.067Z,3.03
2022-12-06T10:13:58.229Z,2.90
2022-12-06T10:16:54.869Z,2.70
2022-12-06T10:19:40.938Z,3.00
2022-12-06T10:22:20.962Z,3.00
2022-12-06T10:25:04.409Z,2.95
2022-12-06T10:27:40.598Z,3.40
2022-12-06T10:30:14.180Z,3.20
2022-12-06T10:32:55.105Z,3.10
2022-12-06T10:35:41.215Z,3.25
2022-12-06T10:38:28.941Z,3.30
2022-12-06T10:41:10.624Z,3.17
2022-12-06T10:43:51.097Z,2.85
2022-12-06T10:46:41.688Z,2.85
2022-12-06T10:49:24.005Z,3.20
2022-12-06T10:52:02.127Z,2.70
2022-12-06T10:54:39.064Z,2.90
2022-12-06T10:57:18.391Z,2.90
2022-12-06T11:00:00.320Z,2.78
2022-12-06T11:02:40.640Z,3.40
2022-12-06T11:05:20.049Z,3.03
2022-12-06T11:07:53.888Z,2.92
2022-12-06T11:10:28.001Z,2.80
2022-12-06T11:13:02.986Z,2.90
2022-12-06T11:15:37.607Z,2.47
2022-12-06T11:18:12.774Z,2.67
2022-12-06T11:20:46.135Z,2.80
2022-12-06T11:23:26.771Z,2.72
2022-12-06T11:26:14.462Z,3.00
2022-12-06T11:28:48.842Z,3.38
2022-12-06T11:31:26.983Z,3.75
2022-12-06T11:33:56.371Z,2.90
2022-12-06T11:36:29.978Z,2.30
2022-12-06T11:38:59.591Z,2.28
2022-12-06T11:41:32.333Z,2.33
2022-12-06T11:44:01.342Z,2.40
2022-12-06T11:46:32.052Z,2.92
2022-12-06T11:49:13.878Z,2.53
2022-12-06T11:51:45.419Z,2.50
2022-12-06T11:54:28.680Z,2.30
2022-12-06T11:57:02.792Z,2.10
2022-12-06T11:59:33.150Z,2.10
2022-12-06T12:02:05.620Z,2.20
2022-12-06T12:04:39.318Z,1.70
2022-12-06T12:07:16.671Z,1.60
2022-12-06T12:09:55.111Z,1.73
2022-12-06T12:12:47.292Z,1.20
2022-12-06T12:17:53.442Z,2.00
2022-12-06T12:20:27.525Z,2.13
2022-12-06T12:23:05.752Z,2.25
2022-12-06T12:25:36.460Z,2.30
2022-12-06T12:28:23.477Z,1.90
2022-12-06T12:30:55.349Z,1.67
2022-12-06T12:36:09.935Z,1.23
2022-12-06T12:38:43.499Z,1.15
2022-12-06T12:41:30.815Z,1.45
2022-12-06T12:46:57.324Z,1.30
2022-12-06T12:49:35.107Z,1.70
2022-12-06T12:52:25.995Z,1.70
2022-12-06T12:55:02.420Z,1.70
2022-12-06T12:57:31.571Z,1.60
2022-12-06T13:00:00.353Z,1.67
2022-12-06T13:02:32.339Z,2.03
2022-12-06T13:05:32.084Z,1.75
2022-12-06T13:08:05.830Z,1.75
2022-12-06T13:10:38.262Z,2.15
2022-12-06T13:13:19.878Z,2.83
2022-12-06T13:15:52.270Z,3.15
2022-12-06T13:18:24.636Z,3.00
2022-12-06T13:20:58.159Z,2.50
2022-12-06T13:23:31.788Z,2.70
2022-12-06T13:26:17.250Z,2.55
2022-12-06T13:28:52.141Z,2.80
2022-12-06T13:31:25.376Z,3.00
2022-12-06T13:34:00.032Z,3.08
2022-12-06T13:36:34.940Z,2.90
2022-12-06T13:39:36.911Z,2.50
2022-12-06T13:42:19.680Z,3.40
2022-12-06T13:44:58.780Z,2.30
2022-12-06T13:47:51.372Z,2.65
2022-12-06T13:50:53.195Z,2.72
2022-12-06T13:53:25.850Z,2.45
2022-12-06T13:56:00.888Z,2.47
2022-12-06T13:58:54.115Z,2.38
2022-12-06T14:01:43.323Z,2.40
2022-12-06T14:09:44.595Z,2.40
2022-12-06T14:12:21.213Z,1.98
2022-12-06T14:15:00.755Z,1.98
2022-12-06T14:20:33.272Z,2.00
2022-12-06T14:23:01.959Z,1.60
2022-12-06T14:25:32.648Z,1.63
2022-12-06T14:28:08.564Z,1.17
2022-12-06T14:30:44.166Z,1.10
2022-12-06T14:33:30.621Z,1.25
2022-12-06T14:36:01.084Z,1.13
2022-12-06T14:38:34.482Z,1.00
2022-12-06T14:41:32.884Z,1.15
2022-12-06T14:44:01.558Z,1.20
2022-12-06T14:46:30.511Z,1.10
2022-12-06T14:49:27.555Z,1.30
2022-12-06T14:52:00.041Z,1.50
2022-12-06T14:54:42.851Z,1.40
2022-12-06T14:57:27.558Z,1.92
2022-12-06T15:00:16.173Z,1.80
2022-12-06T15:03:24.897Z,1.70
2022-12-06T15:06:12.226Z,1.40
2022-12-06T15:08:42.354Z,1.58
2022-12-06T15:11:45.254Z,1.48
2022-12-06T15:14:19.384Z,1.40
2022-12-06T15:16:58.503Z,1.85
2022-12-06T15:19:27.475Z,1.70
2022-12-06T15:21:56.446Z,1.58
2022-12-06T15:24:27.472Z,1.85
2022-12-06T15:26:56.785Z,3.17
2022-12-06T15:29:27.390Z,3.90
2022-12-06T15:31:57.392Z,4.40
2022-12-06T15:34:29.411Z,4.00
2022-12-06T15:37:36.489Z,3.83
2022-12-06T15:39:49.057Z,2.10
2022-12-06T15:42:21.185Z,1.98
2022-12-06T15:44:52.771Z,2.40
2022-12-06T15:47:21.544Z,2.25
2022-12-06T15:49:52.586Z,2.47
2022-12-06T15:52:24.400Z,2.40
2022-12-06T15:54:53.449Z,2.50
2022-12-06T15:57:22.213Z,2.97
2022-12-06T15:59:52.816Z,2.50
2022-12-06T16:02:21.608Z,2.58
2022-12-06T16:04:51.294Z,2.50
2022-12-06T16:07:19.969Z,2.60
2022-12-06T16:09:49.307Z,2.90
2022-12-06T16:12:18.650Z,2.40
2022-12-06T16:14:47.591Z,2.22
2022-12-06T16:17:18.657Z,1.80
2022-12-06T16:20:00.423Z,2.30
2022-12-06T16:22:42.032Z,2.45
2022-12-06T16:25:11.371Z,2.65
2022-12-06T16:27:40.011Z,2.60
2022-12-06T16:30:11.365Z,2.78
2022-12-06T16:32:41.964Z,2.80
2022-12-06T16:35:10.591Z,2.55
2022-12-06T16:37:39.862Z,2.80
2022-12-06T16:40:20.130Z,2.90
2022-12-06T16:42:48.947Z,2.55
2022-12-06T16:45:18.415Z,3.38
2022-12-06T16:47:49.113Z,2.90
2022-12-06T16:50:26.143Z,2.90
2022-12-06T16:52:55.527Z,2.70
2022-12-06T16:55:24.228Z,2.97
2022-12-06T16:57:52.846Z,3.72
2022-12-06T17:00:22.564Z,3.60
2022-12-06T17:02:53.339Z,3.88
2022-12-06T17:05:25.856Z,3.67
2022-12-06T17:07:54.986Z,2.17
2022-12-06T17:10:24.025Z,2.75
2022-12-06T17:12:52.794Z,2.45
2022-12-06T17:15:23.301Z,3.28
2022-12-06T17:17:54.064Z,2.65
2022-12-06T17:20:22.793Z,3.05
2022-12-06T17:22:51.677Z,3.05
2022-12-06T17:25:20.857Z,3.15
2022-12-06T17:27:50.943Z,2.90
2022-12-06T17:30:22.713Z,2.70
2022-12-06T17:32:54.829Z,3.38
2022-12-06T17:35:31.508Z,2.83
2022-12-06T17:38:03.672Z,3.17
2022-12-06T17:40:50.759Z,3.00
2022-12-06T17:43:20.295Z,3.03
2022-12-06T17:45:49.319Z,3.40
2022-12-06T17:48:22.884Z,3.28
2022-12-06T17:50:51.579Z,3.67
2022-12-06T17:53:20.478Z,3.90
2022-12-06T17:55:49.493Z,3.80
2022-12-06T17:58:18.582Z,4.05
2022-12-06T18:01:13.666Z,3.92
2022-12-06T18:06:30.519Z,3.65
2022-12-06T18:09:00.724Z,3.95
2022-12-06T18:11:31.038Z,3.85
